Terminal Aerodrome Forecast
Issued by NWS

Home | Current Version | Previous Version | Text Only | Print | Product List | Glossary On
Versions: 1 2 3 4 5 6 7 8 9 10 11 12 13 14 15 16 17 18 19 20 21 22 23 24 25 26 27 28 29 30 31 32 33 34 35 36 37 38 39 40
000
FTUS43 KMQT 172320
TAFSAW
TAF
KSAW 172320Z 1800/1824 15006KT P6SM BKN060
     FM180500 VRB04KT P6SM VCSH BKN080
     FM181200 00000KT P6SM VCSH BKN035
     FM181600 VRB03KT P6SM VCSH BKN014
     FM182200 02008KT P6SM BKN022=

USA.gov is the U.S. government's official web portal to all federal, state and local government web resources and services.